Kashi, Kashgar Airport (ZWSH)

NameKashgar Airport
CityKashi
CountryChina
ICAOZWSH
IATAKHG
Altitude1380 m
CoordinatesGoogle Map
Live Air TrafficLiveATC.net
METARZWSH 120900Z 09004MPS CAVOK 13/M14 Q1033 NOSIG
2019-11-12 09:00:00 Wind: East (90°) 4 m/s - Visibility: > 10000 m - Weather: CAVOK - Temperature: 13 °C - Dew point: -14 °C - Humidity: 13.9% - Pressure: 1033 hPa

Sorry, no flights used the airport in this database.